Time;durP1;ratioP1;P1;durP2;ratioP2;P2;SDS_P1;SDS_P2;PMS_P1;PMS_P2;Temp;Humidity;BMP_temperature;BMP_pressure;BME280_temperature;BME280_humidity;BME280_pressure;Samples;Min_cycle;Max_cycle;Signal;HPM_P1;HPM_P2
2021/10/10 00:06:31;;;;;;;5.73;1.97;;;17.10;46.70;;;;;;20799071;28;80269;-71
2021/10/10 00:16:34;;;;;;;;;;;17.00;46.60;;;;;;20804230;28;80944;-72
2021/10/10 00:26:37;;;;;;;3.53;1.00;;;16.90;46.60;;;;;;20819567;28;81043;-72
2021/10/10 00:36:40;;;;;;;2.97;0.85;;;16.90;46.90;;;;;;20794591;28;80154;-71
2021/10/10 00:46:43;;;;;;;2.58;0.63;;;16.80;46.80;;;;;;20799959;28;81810;-72
2021/10/10 00:56:46;;;;;;;3.93;0.73;;;16.80;46.60;;;;;;20799095;28;80787;-72
2021/10/10 01:06:52;;;;;;;3.22;0.90;;;16.90;46.40;;;;;;20800378;28;79915;-72
2021/10/10 01:16:55;;;;;;;1.95;0.60;;;16.80;46.60;;;;;;20796339;28;80944;-72
2021/10/10 01:26:59;;;;;;;2.05;0.68;;;16.70;46.90;;;;;;20795256;28;80692;-70
2021/10/10 01:37:07;;;;;;;2.80;0.85;;;16.70;47.10;;;;;;20798824;28;80727;-71
2021/10/10 01:47:09;;;;;;;1.90;0.40;;;16.60;47.50;;;;;;20798604;28;80700;-71
2021/10/10 01:57:16;;;;;;;2.15;0.50;;;16.50;47.80;;;;;;20803088;28;80004;-71
2021/10/10 02:07:26;;;;;;;1.67;0.57;;;16.40;48.00;;;;;;20809752;28;80762;-71
2021/10/10 02:17:32;;;;;;;2.95;1.10;;;16.40;48.30;;;;;;20802191;28;80892;-72
2021/10/10 02:27:40;;;;;;;2.90;0.50;;;16.30;48.50;;;;;;20805262;28;81867;-72
2021/10/10 02:37:47;;;;;;;3.28;1.15;;;16.30;48.70;;;;;;20805516;28;81070;-73
2021/10/10 02:48:07;;;;;;;3.25;0.80;;;16.20;48.90;;;;;;20802124;28;81944;-73
2021/10/10 02:58:19;;;;;;;4.17;1.00;;;16.20;48.90;;;;;;20804061;28;81099;-73
2021/10/10 03:08:31;;;;;;;2.42;0.90;;;16.20;49.00;;;;;;20797293;28;81407;-73
2021/10/10 03:18:39;;;;;;;2.47;1.15;;;16.30;49.00;;;;;;20798861;28;80594;-72
2021/10/10 03:28:47;;;;;;;2.47;0.75;;;16.40;49.00;;;;;;20806794;28;80635;-72
2021/10/10 03:38:53;;;;;;;2.58;0.70;;;16.60;48.50;;;;;;20806422;28;80209;-71
2021/10/10 03:48:59;;;;;;;2.10;0.95;;;16.80;48.20;;;;;;20805305;28;81913;-71
2021/10/10 03:59:10;;;;;;;3.35;0.70;;;16.90;48.00;;;;;;20804208;28;80952;-71
2021/10/10 04:09:16;;;;;;;4.05;1.08;;;16.90;48.00;;;;;;20803994;28;80799;-71
2021/10/10 04:19:22;;;;;;;2.72;1.00;;;16.90;48.00;;;;;;20800977;28;81833;-70
2021/10/10 04:29:29;;;;;;;3.17;0.85;;;16.90;48.50;;;;;;20801277;28;81756;-71
2021/10/10 04:39:41;;;;;;;4.45;1.23;;;16.80;48.90;;;;;;20800408;28;80092;-71
2021/10/10 04:49:56;;;;;;;3.45;1.00;;;16.90;48.80;;;;;;20865684;28;80547;-72
2021/10/10 05:00:03;;;;;;;2.40;1.17;;;17.00;49.00;;;;;;20884212;28;80975;-72
2021/10/10 05:10:07;;;;;;;4.30;1.48;;;17.00;49.10;;;;;;20866872;28;81587;-73
2021/10/10 05:20:13;;;;;;;1.90;0.70;;;17.00;49.60;;;;;;20863974;28;81792;-73
2021/10/10 05:30:20;;;;;;;2.47;1.23;;;17.00;49.80;;;;;;20876945;27;81161;-73
2021/10/10 05:40:34;;;;;;;3.08;1.23;;;17.10;49.90;;;;;;20883755;28;82184;-73
2021/10/10 05:50:49;;;;;;;2.67;1.30;;;17.00;50.50;;;;;;20880903;28;81799;-75
2021/10/10 06:01:00;;;;;;;3.80;1.08;;;17.00;50.90;;;;;;20885242;27;81442;-73
2021/10/10 06:11:22;;;;;;;7.75;1.50;;;17.00;51.20;;;;;;20879803;27;83011;-75
2021/10/10 06:21:43;;;;;;;4.00;1.23;;;17.10;51.40;;;;;;20881313;28;82459;-74
2021/10/10 06:31:59;;;;;;;3.33;1.40;;;17.20;51.40;;;;;;20879740;28;80972;-71
2021/10/10 06:42:12;;;;;;;4.05;1.42;;;17.20;51.60;;;;;;20881576;27;81071;-72
2021/10/10 06:52:21;;;;;;;5.88;1.15;;;17.20;52.10;;;;;;20880363;28;81628;-73
2021/10/10 07:02:28;;;;;;;4.80;1.40;;;17.30;51.30;;;;;;20878065;27;81775;-72
2021/10/10 07:12:35;;;;;;;5.13;1.52;;;17.40;51.20;;;;;;20877895;27;81944;-71
2021/10/10 07:22:57;;;;;;;6.43;1.52;;;17.80;50.30;;;;;;20872544;27;80950;-70
2021/10/10 07:33:01;;;;;;;6.13;1.63;;;18.30;49.30;;;;;;20878177;27;82058;-71
2021/10/10 07:43:06;;;;;;;3.70;1.85;;;18.50;49.20;;;;;;20876605;28;81269;-71
2021/10/10 07:53:14;;;;;;;5.32;1.83;;;18.80;48.60;;;;;;20876131;28;81066;-71
2021/10/10 08:03:23;;;;;;;3.30;1.65;;;18.90;48.40;;;;;;20876625;28;82138;-71
2021/10/10 08:13:31;;;;;;;8.15;2.22;;;19.20;48.00;;;;;;20873910;28;81951;-74
2021/10/10 08:23:35;;;;;;;3.72;1.85;;;19.50;47.60;;;;;;20873611;27;82212;-65
2021/10/10 08:33:41;;;;;;;4.53;1.90;;;19.70;47.60;;;;;;20874440;28;83677;-64
2021/10/10 08:43:49;;;;;;;5.60;2.22;;;19.80;47.70;;;;;;20873980;28;82028;-65
2021/10/10 08:53:58;;;;;;;3.15;1.67;;;20.00;47.40;;;;;;20866171;28;82412;-66
2021/10/10 09:04:05;;;;;;;7.25;2.85;;;20.30;47.20;;;;;;20867284;28;81534;-66
2021/10/10 09:14:11;;;;;;;5.75;1.70;;;20.50;46.90;;;;;;20863173;27;81057;-65
2021/10/10 09:24:25;;;;;;;6.82;2.17;;;20.60;46.90;;;;;;20875735;28;81823;-62
2021/10/10 09:34:29;;;;;;;5.68;1.60;;;20.90;46.40;;;;;;20884602;28;80851;-66
2021/10/10 09:44:46;;;;;;;3.70;1.92;;;21.60;44.90;;;;;;20885050;27;82187;-65
2021/10/10 09:54:58;;;;;;;8.88;2.72;;;22.60;43.80;;;;;;20853278;28;80650;-70
2021/10/10 10:05:02;;;;;;;7.57;2.22;;;23.40;42.50;;;;;;20824432;27;81154;-70
2021/10/10 10:15:06;;;;;;;5.10;1.77;;;23.90;42.00;;;;;;20849934;27;81938;-65
2021/10/10 10:25:12;;;;;;;8.15;2.58;;;23.70;42.60;;;;;;20897607;27;80836;-70
2021/10/10 10:35:18;;;;;;;3.30;1.98;;;24.30;42.00;;;;;;20895804;27;80845;-64
2021/10/10 10:45:25;;;;;;;5.13;2.20;;;24.30;42.70;;;;;;20895743;28;80714;-63
2021/10/10 10:55:34;;;;;;;3.70;2.17;;;24.50;42.20;;;;;;20825227;28;81977;-65
2021/10/10 11:05:41;;;;;;;5.32;1.85;;;29.60;34.80;;;;;;20809742;28;81176;-65
2021/10/10 11:15:57;;;;;;;9.27;1.92;;;33.60;28.90;;;;;;20808939;28;81958;-65
2021/10/10 11:26:07;;;;;;;6.40;2.17;;;31.90;31.70;;;;;;20808883;28;80290;-69
2021/10/10 11:36:11;;;;;;;7.53;2.38;;;32.70;30.40;;;;;;20807890;28;80480;-63
2021/10/10 11:46:20;;;;;;;4.68;2.58;;;39.00;23.30;;;;;;20825177;28;81057;-66
2021/10/10 11:56:25;;;;;;;7.22;2.00;;;40.20;22.20;;;;;;20816552;28;81666;-63
2021/10/10 12:06:30;;;;;;;4.82;2.20;;;34.60;28.00;;;;;;20825135;28;80645;-69
2021/10/10 12:16:43;;;;;;;5.82;2.55;;;32.40;31.50;;;;;;20865386;27;80621;-65
2021/10/10 12:26:48;;;;;;;10.30;2.70;;;33.50;30.10;;;;;;20820970;28;80813;-67
2021/10/10 12:36:55;;;;;;;6.50;2.05;;;33.80;29.80;;;;;;20801858;28;81835;-65
2021/10/10 12:47:01;;;;;;;4.68;1.70;;;33.30;30.50;;;;;;20803444;28;80845;-64
2021/10/10 12:57:12;;;;;;;4.03;2.92;;;35.30;28.20;;;;;;20802274;28;81794;-66
2021/10/10 13:07:15;;;;;;;6.82;2.33;;;37.00;26.20;;;;;;20839495;27;81850;-67
2021/10/10 13:17:20;;;;;;;6.55;2.40;;;38.50;24.50;;;;;;20886753;27;81936;-67
2021/10/10 13:27:23;;;;;;;4.28;2.28;;;33.30;30.50;;;;;;20884929;27;79914;-66
2021/10/10 13:37:26;;;;;;;5.00;2.38;;;31.00;33.70;;;;;;20843337;27;80080;-66
2021/10/10 13:47:33;;;;;;;4.43;2.53;;;30.50;34.10;;;;;;20837785;28;82191;-67
2021/10/10 13:57:39;;;;;;;3.58;2.25;;;31.20;33.20;;;;;;20896959;27;80810;-68
2021/10/10 14:07:42;;;;;;;4.22;1.95;;;34.70;28.70;;;;;;20871133;27;82126;-69
2021/10/10 14:17:49;;;;;;;5.28;2.33;;;36.50;26.20;;;;;;20897611;27;80823;-69
2021/10/10 14:27:54;;;;;;;4.88;1.80;;;36.70;26.70;;;;;;20881376;27;81922;-69
2021/10/10 14:37:56;;;;;;;2.58;1.80;;;34.20;28.70;;;;;;20855717;28;80514;-68
2021/10/10 14:48:08;;;;;;;6.50;1.40;;;34.40;27.40;;;;;;20896479;27;81710;-68
2021/10/10 14:58:13;;;;;;;2.92;1.85;;;33.40;28.70;;;;;;20857048;27;80043;-70
2021/10/10 15:08:15;;;;;;;2.72;1.60;;;30.70;31.80;;;;;;20880732;28;81254;-66
2021/10/10 15:18:17;;;;;;;5.55;1.70;;;29.00;34.30;;;;;;20888265;27;81729;-66
2021/10/10 15:28:20;;;;;;;3.83;1.48;;;28.50;36.40;;;;;;20807111;28;80727;-67
2021/10/10 15:38:23;;;;;;;7.90;1.42;;;27.70;36.90;;;;;;20805272;28;80722;-68
2021/10/10 15:48:26;;;;;;;3.67;1.40;;;27.60;36.70;;;;;;20798299;28;81586;-66
2021/10/10 15:58:29;;;;;;;3.50;1.20;;;28.20;35.90;;;;;;20804411;28;80810;-69
2021/10/10 16:08:34;;;;;;;3.83;1.40;;;27.50;36.20;;;;;;20844529;28;81153;-63
2021/10/10 16:18:36;;;;;;;5.47;2.30;;;26.80;37.40;;;;;;20883608;27;80806;-67
2021/10/10 16:28:38;;;;;;;3.72;1.50;;;26.20;38.60;;;;;;20821308;27;81858;-67
2021/10/10 16:38:45;;;;;;;3.33;1.58;;;25.60;39.10;;;;;;20822809;28;81996;-65
2021/10/10 16:48:47;;;;;;;3.25;1.75;;;25.00;39.40;;;;;;20804429;28;81851;-66
2021/10/10 16:58:49;;;;;;;5.88;2.42;;;24.50;40.60;;;;;;20803791;28;80709;-65
2021/10/10 17:08:51;;;;;;;5.60;2.05;;;24.10;41.30;;;;;;20820880;28;79983;-65
2021/10/10 17:18:53;;;;;;;4.60;1.73;;;23.80;42.70;;;;;;20805013;27;80671;-65
2021/10/10 17:28:56;;;;;;;5.18;2.47;;;23.40;42.70;;;;;;20811573;28;80781;-69
2021/10/10 17:38:58;;;;;;;6.07;2.40;;;23.00;43.80;;;;;;20815375;28;80519;-64
2021/10/10 17:49:00;;;;;;;24.63;10.80;;;22.60;45.00;;;;;;20815588;28;82054;-63
2021/10/10 17:59:16;;;;;;;8.75;3.53;;;22.20;45.80;;;;;;20802422;28;82578;-66
2021/10/10 18:19:39;;;;;;;27.65;4.25;;;21.60;47.70;;;;;;20813702;28;81980;-70
2021/10/10 18:29:42;;;;;;;8.20;4.32;;;21.40;48.20;;;;;;20832249;28;82317;-67
2021/10/10 18:39:44;;;;;;;;;;;21.20;48.90;;;;;;20857877;27;81793;-67
2021/10/10 18:49:46;;;;;;;13.00;3.90;;;20.90;48.80;;;;;;20908240;27;81013;-69
2021/10/10 18:59:48;;;;;;;8.70;3.97;;;20.80;49.30;;;;;;20890391;28;79938;-69
2021/10/10 19:09:54;;;;;;;9.75;4.45;;;20.60;49.70;;;;;;20862510;28;81630;-70
2021/10/10 19:19:56;;;;;;;14.73;5.68;;;20.40;50.30;;;;;;20806083;27;82364;-70
2021/10/10 19:29:58;;;;;;;11.25;6.40;;;20.30;51.50;;;;;;20808861;28;80873;-72
2021/10/10 19:40:00;;;;;;;14.45;6.50;;;20.30;52.20;;;;;;20825949;27;81935;-70
2021/10/10 19:50:07;;;;;;;12.27;4.95;;;20.00;53.10;;;;;;20807211;28;81771;-71
2021/10/10 20:00:10;;;;;;;11.73;4.97;;;19.90;53.80;;;;;;20805682;28;81951;-70
2021/10/10 20:10:13;;;;;;;11.10;4.10;;;19.80;53.80;;;;;;20874259;28;80848;-71
2021/10/10 20:20:15;;;;;;;10.38;4.60;;;19.60;53.80;;;;;;20889258;28;81857;-71
2021/10/10 20:30:17;;;;;;;9.20;4.13;;;19.40;54.40;;;;;;20886774;28;80608;-72
2021/10/10 20:40:20;;;;;;;8.68;3.90;;;19.20;54.70;;;;;;20877425;27;81859;-71
2021/10/10 20:50:24;;;;;;;8.52;4.20;;;19.10;55.20;;;;;;20811985;28;80974;-71
2021/10/10 21:00:27;;;;;;;;;;;19.00;55.60;;;;;;20802666;28;80730;-70
2021/10/10 21:10:30;;;;;;;;;;;18.70;55.90;;;;;;20823353;28;80862;-71
2021/10/10 21:20:32;;;;;;;7.63;3.15;;;18.40;56.60;;;;;;20834457;28;77042;-70
2021/10/10 21:31:07;;;;;;;9.60;3.83;;;18.40;57.00;;;;;;20804760;28;79817;-72
2021/10/10 21:40:56;;;;;;;14.17;4.00;;;18.20;57.60;;;;;;20809618;28;80332;-72
2021/10/10 21:50:58;;;;;;;10.47;3.23;;;18.10;57.90;;;;;;20799376;28;82053;-71
2021/10/10 22:00:59;;;;;;;10.83;4.30;;;17.80;58.70;;;;;;20814616;28;81849;-72
2021/10/10 22:11:05;;;;;;;7.78;4.18;;;17.80;58.80;;;;;;20822034;28;81994;-70
2021/10/10 22:21:07;;;;;;;9.60;3.60;;;17.60;59.20;;;;;;20812494;28;82040;-70
2021/10/10 22:31:08;;;;;;;9.98;3.75;;;17.50;59.70;;;;;;20811946;28;81870;-70
2021/10/10 22:41:10;;;;;;;7.70;3.38;;;17.40;59.80;;;;;;20821752;28;82086;-70
2021/10/10 22:51:15;;;;;;;10.35;3.78;;;17.40;60.00;;;;;;20809715;28;81903;-70
2021/10/10 23:01:16;;;;;;;8.82;3.92;;;17.30;60.00;;;;;;20809203;28;81979;-71
2021/10/10 23:11:18;;;;;;;10.60;3.83;;;17.30;60.10;;;;;;20808806;28;80963;-70
2021/10/10 23:21:20;;;;;;;7.25;4.05;;;17.20;60.40;;;;;;20807737;28;81841;-70
2021/10/10 23:31:22;;;;;;;7.78;3.67;;;17.20;60.70;;;;;;20807917;28;80823;-72
2021/10/10 23:41:23;;;;;;;11.40;4.43;;;17.20;60.90;;;;;;20805978;28;81875;-70
2021/10/10 23:51:25;;;;;;;6.90;3.28;;;17.20;61.10;;;;;;20804681;28;81808;-71
